createdAt,value
2022-09-06T00:02:11.084Z,18.80
2022-09-06T00:04:38.945Z,18.80
2022-09-06T00:07:06.725Z,18.80
2022-09-06T00:09:36.214Z,18.70
2022-09-06T00:12:04.555Z,18.80
2022-09-06T00:14:32.387Z,18.70
2022-09-06T00:17:00.165Z,18.80
2022-09-06T00:19:27.953Z,18.70
2022-09-06T00:21:55.731Z,18.70
2022-09-06T00:24:23.709Z,18.70
2022-09-06T00:26:52.854Z,18.70
2022-09-06T00:29:20.835Z,18.70
2022-09-06T00:31:48.613Z,18.70
2022-09-06T00:34:17.443Z,18.70
2022-09-06T00:36:45.246Z,18.70
2022-09-06T00:39:13.105Z,18.70
2022-09-06T00:41:41.156Z,18.70
2022-09-06T00:44:10.357Z,18.70
2022-09-06T00:46:40.671Z,18.70
2022-09-06T00:49:12.315Z,18.60
2022-09-06T00:51:41.020Z,18.60
2022-09-06T00:54:10.670Z,18.60
2022-09-06T00:56:42.600Z,18.60
2022-09-06T00:59:11.866Z,18.60
2022-09-06T01:01:39.751Z,18.70
2022-09-06T01:04:07.999Z,18.80
2022-09-06T01:06:45.329Z,18.80
2022-09-06T01:09:24.984Z,18.90
2022-09-06T01:12:02.994Z,19.00
2022-09-06T01:14:45.014Z,18.90
2022-09-06T01:17:21.904Z,19.00
2022-09-06T01:20:24.073Z,19.00
2022-09-06T01:23:36.828Z,19.00
2022-09-06T01:26:14.776Z,19.10
2022-09-06T01:28:45.974Z,19.00
2022-09-06T01:31:25.454Z,19.00
2022-09-06T01:34:11.782Z,19.00
2022-09-06T01:37:06.269Z,19.00
2022-09-06T01:39:35.815Z,19.00
2022-09-06T01:42:08.053Z,19.00
2022-09-06T01:44:38.503Z,19.00
2022-09-06T01:47:18.422Z,19.00
2022-09-06T01:49:55.157Z,19.00
2022-09-06T01:52:32.581Z,19.00
2022-09-06T01:55:13.909Z,19.00
2022-09-06T01:57:56.730Z,19.00
2022-09-06T02:00:26.244Z,19.00
2022-09-06T02:03:02.842Z,19.00
2022-09-06T02:05:35.324Z,19.00
2022-09-06T02:08:08.953Z,19.00
2022-09-06T02:10:43.679Z,19.00
2022-09-06T02:13:13.851Z,19.00
2022-09-06T02:15:48.268Z,19.00
2022-09-06T02:18:23.230Z,19.00
2022-09-06T02:20:53.672Z,19.00
2022-09-06T02:23:24.605Z,18.90
2022-09-06T02:25:56.575Z,18.90
2022-09-06T02:28:24.825Z,18.80
2022-09-06T02:30:58.995Z,18.80
2022-09-06T02:33:31.313Z,18.80
2022-09-06T02:36:05.283Z,18.80
2022-09-06T02:38:35.171Z,18.80
2022-09-06T02:41:04.311Z,18.80
2022-09-06T02:43:32.083Z,18.70
2022-09-06T02:46:01.535Z,18.70
2022-09-06T02:48:29.542Z,18.70
2022-09-06T02:50:57.316Z,18.60
2022-09-06T02:53:25.500Z,18.60
2022-09-06T02:55:53.308Z,18.60
2022-09-06T02:58:21.214Z,18.50
2022-09-06T03:00:49.154Z,18.50
2022-09-06T03:03:18.409Z,18.50
2022-09-06T03:05:49.689Z,18.50
2022-09-06T03:08:18.247Z,18.40
2022-09-06T03:10:50.257Z,18.40
2022-09-06T03:13:18.454Z,18.40
2022-09-06T03:15:46.353Z,18.40
2022-09-06T03:18:14.757Z,18.30
2022-09-06T03:20:43.977Z,18.30
2022-09-06T03:23:11.842Z,18.30
2022-09-06T03:25:39.631Z,18.30
2022-09-06T03:28:07.437Z,18.20
2022-09-06T03:30:35.276Z,18.20
2022-09-06T03:33:03.198Z,18.20
2022-09-06T03:35:31.005Z,18.20
2022-09-06T03:38:00.143Z,18.20
2022-09-06T03:40:28.277Z,18.20
2022-09-06T03:42:56.068Z,18.20
2022-09-06T03:45:23.896Z,18.20
2022-09-06T03:47:51.699Z,18.20
2022-09-06T03:50:19.542Z,18.20
2022-09-06T03:52:47.372Z,18.10
2022-09-06T03:55:16.703Z,18.10
2022-09-06T03:57:44.546Z,18.10
2022-09-06T04:00:13.907Z,18.10
2022-09-06T04:02:41.885Z,18.00
2022-09-06T04:05:10.613Z,18.00
2022-09-06T04:07:38.477Z,18.00
2022-09-06T04:10:07.272Z,18.00
2022-09-06T04:12:36.420Z,18.00
2022-09-06T04:15:04.566Z,18.00
2022-09-06T04:17:32.423Z,17.90
2022-09-06T04:20:00.278Z,17.90
2022-09-06T04:22:28.117Z,17.80
2022-09-06T04:24:56.003Z,17.80
2022-09-06T04:27:23.811Z,17.80
2022-09-06T04:29:52.968Z,17.70
2022-09-06T04:32:20.787Z,17.70
2022-09-06T04:34:48.582Z,17.70
2022-09-06T04:37:17.931Z,17.60
2022-09-06T04:39:45.936Z,17.60
2022-09-06T04:42:14.120Z,17.60
2022-09-06T04:44:42.662Z,17.60
2022-09-06T04:47:15.305Z,17.50
2022-09-06T04:49:43.663Z,17.50
2022-09-06T04:52:12.137Z,17.40
2022-09-06T04:54:40.050Z,17.40
2022-09-06T04:57:08.322Z,17.30
2022-09-06T04:59:36.466Z,17.30
2022-09-06T05:02:04.910Z,17.20
2022-09-06T05:04:34.105Z,17.20
2022-09-06T05:07:03.136Z,17.20
2022-09-06T05:09:30.959Z,17.10
2022-09-06T05:11:59.502Z,17.10
2022-09-06T05:14:27.537Z,17.10
2022-09-06T05:16:55.657Z,17.10
2022-09-06T05:19:23.616Z,17.10
2022-09-06T05:21:53.527Z,17.00
2022-09-06T05:24:21.342Z,17.00
2022-09-06T05:26:49.252Z,17.00
2022-09-06T05:29:17.072Z,17.00
2022-09-06T05:31:44.927Z,17.00
2022-09-06T05:34:13.463Z,17.00
2022-09-06T05:36:41.957Z,17.00
2022-09-06T05:39:11.119Z,17.00
2022-09-06T05:41:39.074Z,17.00
2022-09-06T05:44:06.905Z,17.10
2022-09-06T05:46:34.722Z,17.10
2022-09-06T05:49:07.705Z,17.10
2022-09-06T05:51:35.528Z,17.10
2022-09-06T05:54:03.325Z,17.10
2022-09-06T05:56:32.504Z,17.10
2022-09-06T05:59:00.345Z,17.20
2022-09-06T06:01:30.323Z,17.20
2022-09-06T06:04:00.304Z,17.20
2022-09-06T06:06:29.649Z,17.30
2022-09-06T06:08:57.676Z,17.30
2022-09-06T06:11:26.872Z,17.30
2022-09-06T06:13:56.431Z,17.30
2022-09-06T06:16:25.386Z,17.40
2022-09-06T06:18:53.462Z,17.40
2022-09-06T06:21:23.408Z,17.50
2022-09-06T06:23:52.894Z,17.50
2022-09-06T06:26:20.992Z,17.50
2022-09-06T06:28:49.472Z,17.60
2022-09-06T06:31:19.352Z,17.60
2022-09-06T06:33:47.231Z,17.70
2022-09-06T06:36:23.190Z,17.70
2022-09-06T06:38:54.289Z,17.80
2022-09-06T06:41:24.177Z,17.80
2022-09-06T06:43:56.203Z,17.90
2022-09-06T06:46:27.510Z,18.00
2022-09-06T06:48:55.883Z,18.00
2022-09-06T06:51:26.015Z,18.10
2022-09-06T06:53:54.162Z,18.20
2022-09-06T06:56:23.526Z,18.30
2022-09-06T06:58:53.223Z,18.30
2022-09-06T07:01:22.849Z,18.40
2022-09-06T07:03:52.127Z,18.50
2022-09-06T07:06:21.257Z,18.50
2022-09-06T07:08:49.614Z,18.60
2022-09-06T07:11:21.593Z,18.70
2022-09-06T07:13:52.327Z,18.80
2022-09-06T07:16:22.264Z,18.90
2022-09-06T07:18:53.915Z,18.90
2022-09-06T07:21:41.736Z,19.00
2022-09-06T07:24:10.331Z,19.10
2022-09-06T07:26:40.394Z,19.20
2022-09-06T07:29:09.134Z,19.30
2022-09-06T07:34:29.032Z,19.40
2022-09-06T07:36:57.160Z,19.60
2022-09-06T07:39:25.174Z,19.60
2022-09-06T07:41:53.051Z,19.70
2022-09-06T07:44:20.794Z,19.80
2022-09-06T07:46:48.711Z,19.90
2022-09-06T07:49:16.497Z,20.00
2022-09-06T07:51:45.553Z,20.10
2022-09-06T07:54:29.749Z,20.20
2022-09-06T07:56:58.443Z,20.30
2022-09-06T07:59:27.409Z,20.40
2022-09-06T08:01:55.190Z,20.50
2022-09-06T08:04:23.061Z,20.70
2022-09-06T08:09:41.261Z,20.80
2022-09-06T08:12:09.544Z,21.00
2022-09-06T08:14:37.546Z,21.10
2022-09-06T08:17:05.436Z,21.20
2022-09-06T08:19:34.352Z,21.30
2022-09-06T08:22:03.502Z,21.40
2022-09-06T08:24:31.653Z,21.50
2022-09-06T08:26:59.405Z,21.60
2022-09-06T08:29:27.352Z,21.70
2022-09-06T08:31:55.246Z,21.80
2022-09-06T08:34:23.064Z,21.90
2022-09-06T08:36:50.797Z,22.00
2022-09-06T08:39:20.195Z,22.10
2022-09-06T08:41:53.132Z,22.20
2022-09-06T08:47:14.108Z,22.40
2022-09-06T08:49:44.901Z,22.50
2022-09-06T08:52:41.809Z,22.60
2022-09-06T08:55:34.984Z,22.70
2022-09-06T08:58:14.254Z,22.80
2022-09-06T09:00:49.177Z,22.90
2022-09-06T09:03:20.886Z,23.00
2022-09-06T09:05:51.741Z,23.20
2022-09-06T09:08:25.578Z,23.30
2022-09-06T09:10:59.054Z,23.30
2022-09-06T09:13:31.712Z,23.40
2022-09-06T09:16:00.281Z,23.50
2022-09-06T09:18:31.869Z,23.60
2022-09-06T09:20:59.944Z,23.70
2022-09-06T09:23:28.880Z,23.70
2022-09-06T09:26:02.218Z,23.80
2022-09-06T09:28:30.125Z,23.80
2022-09-06T09:30:58.606Z,23.90
2022-09-06T09:33:29.646Z,24.00
2022-09-06T09:36:00.281Z,24.10
2022-09-06T09:38:30.437Z,24.20
2022-09-06T09:41:02.532Z,24.20
2022-09-06T09:43:32.402Z,24.20
2022-09-06T09:46:11.907Z,24.30
2022-09-06T09:48:40.388Z,24.30
2022-09-06T09:51:26.317Z,24.40
2022-09-06T09:53:56.882Z,24.40
2022-09-06T09:56:36.320Z,24.50
2022-09-06T09:59:07.416Z,24.60
2022-09-06T10:01:35.559Z,24.60
2022-09-06T10:07:09.691Z,24.70
2022-09-06T10:09:41.238Z,24.80
2022-09-06T10:12:17.170Z,24.90
2022-09-06T10:14:46.618Z,24.90
2022-09-06T10:17:23.390Z,25.00
2022-09-06T10:19:51.178Z,25.10
2022-09-06T10:22:27.919Z,25.20
2022-09-06T10:25:30.426Z,25.30
2022-09-06T10:28:19.429Z,25.40
2022-09-06T10:30:59.172Z,25.50
2022-09-06T10:33:36.407Z,25.60
2022-09-06T10:36:05.330Z,25.80
2022-09-06T10:38:43.325Z,25.80
2022-09-06T10:41:40.488Z,25.90
2022-09-06T10:44:22.446Z,26.00
2022-09-06T10:46:59.669Z,26.20
2022-09-06T10:49:28.501Z,26.20
2022-09-06T10:52:01.312Z,26.20
2022-09-06T10:54:31.374Z,26.20
2022-09-06T10:57:03.993Z,26.20
2022-09-06T10:59:36.526Z,26.30
2022-09-06T11:02:17.040Z,26.40
2022-09-06T11:07:39.450Z,26.60
2022-09-06T11:10:16.319Z,26.70
2022-09-06T11:12:50.313Z,26.90
2022-09-06T11:15:21.878Z,27.00
2022-09-06T11:17:55.046Z,27.10
2022-09-06T11:20:32.153Z,27.20
2022-09-06T11:23:28.415Z,27.30
2022-09-06T13:32:15.094Z,30.00
2022-09-06T13:34:52.218Z,30.00
2022-09-06T13:37:20.550Z,30.00
2022-09-06T13:39:49.101Z,30.00
2022-09-06T13:42:27.708Z,30.00
2022-09-06T13:45:00.066Z,30.00
2022-09-06T13:47:31.045Z,30.00
2022-09-06T13:49:58.794Z,30.00
2022-09-06T13:52:26.829Z,30.00
2022-09-06T13:54:54.610Z,30.00
2022-09-06T13:57:24.435Z,30.10
2022-09-06T13:59:52.551Z,30.10
2022-09-06T14:02:20.840Z,30.10
2022-09-06T14:04:49.989Z,30.10
2022-09-06T14:07:17.778Z,30.10
2022-09-06T14:09:45.609Z,30.10
2022-09-06T14:12:13.342Z,30.10
2022-09-06T14:14:41.058Z,30.10
2022-09-06T14:17:08.996Z,30.10
2022-09-06T14:19:36.710Z,30.00
2022-09-06T14:22:06.872Z,30.00
2022-09-06T14:24:34.650Z,30.00
2022-09-06T14:27:02.480Z,29.90
2022-09-06T14:29:31.153Z,29.80
2022-09-06T14:31:59.259Z,29.80
2022-09-06T14:34:27.721Z,29.80
2022-09-06T14:36:55.630Z,29.80
2022-09-06T14:39:24.771Z,29.80
2022-09-06T14:41:52.545Z,29.90
2022-09-06T14:44:20.533Z,29.90
2022-09-06T14:46:53.202Z,29.80
2022-09-06T14:49:21.604Z,29.80
2022-09-06T14:51:49.330Z,29.80
2022-09-06T14:54:17.253Z,29.70
2022-09-06T14:56:46.551Z,29.70
2022-09-06T14:59:14.601Z,29.70
2022-09-06T15:01:42.650Z,29.70
2022-09-06T15:04:11.769Z,29.60
2022-09-06T15:06:44.722Z,29.60
2022-09-06T15:09:12.510Z,29.60
2022-09-06T15:11:43.256Z,29.60
2022-09-06T15:14:16.726Z,29.50
2022-09-06T15:16:44.554Z,29.50
2022-09-06T15:19:12.882Z,29.50
2022-09-06T15:21:40.968Z,29.50
2022-09-06T15:24:11.937Z,29.50
2022-09-06T15:26:40.767Z,29.50
2022-09-06T15:29:08.756Z,29.40
2022-09-06T15:31:38.371Z,29.30
2022-09-06T15:34:08.322Z,29.30
2022-09-06T15:36:36.792Z,29.30
2022-09-06T15:39:06.242Z,29.20
2022-09-06T15:41:36.090Z,29.10
2022-09-06T15:44:08.682Z,29.10
2022-09-06T15:46:46.670Z,29.00
2022-09-06T15:49:16.539Z,29.00
2022-09-06T15:51:44.525Z,28.80
2022-09-06T15:54:14.134Z,28.70
2022-09-06T15:56:42.028Z,28.60
2022-09-06T15:59:10.224Z,28.60
2022-09-06T16:01:38.859Z,28.50
2022-09-06T16:04:08.210Z,28.40
2022-09-06T16:06:39.482Z,28.30
2022-09-06T16:09:09.038Z,28.30
2022-09-06T16:11:37.498Z,28.20
2022-09-06T16:14:06.514Z,28.20
2022-09-06T16:16:35.106Z,28.10
2022-09-06T16:19:03.419Z,28.10
2022-09-06T16:21:34.697Z,28.00
2022-09-06T16:24:04.614Z,27.90
2022-09-06T16:26:34.635Z,27.80
2022-09-06T16:29:03.647Z,27.80
2022-09-06T16:31:39.121Z,27.70
2022-09-06T16:34:08.691Z,27.60
2022-09-06T16:36:37.848Z,27.50
2022-09-06T16:39:06.522Z,27.50
2022-09-06T16:41:38.747Z,27.40
2022-09-06T16:44:06.598Z,27.30
2022-09-06T16:46:34.712Z,27.20
2022-09-06T16:49:02.944Z,27.20
2022-09-06T16:51:31.817Z,27.10
2022-09-06T16:54:01.420Z,27.00
2022-09-06T16:56:33.115Z,27.00
2022-09-06T16:59:02.558Z,26.90
2022-09-06T17:01:32.194Z,26.90
2022-09-06T17:04:02.073Z,26.80
2022-09-06T17:06:30.667Z,26.70
2022-09-06T17:09:00.588Z,26.70
2022-09-06T17:11:29.319Z,26.60
2022-09-06T17:13:57.908Z,26.60
2022-09-06T17:16:43.790Z,26.50
2022-09-06T17:19:13.396Z,26.50
2022-09-06T17:21:41.162Z,26.40
2022-09-06T17:24:10.562Z,26.40
2022-09-06T17:26:39.609Z,26.30
2022-09-06T17:29:08.194Z,26.20
2022-09-06T17:31:36.747Z,26.10
2022-09-06T17:34:05.183Z,26.10
2022-09-06T17:36:34.185Z,26.00
2022-09-06T17:39:04.045Z,25.90
2022-09-06T17:41:36.520Z,25.90
2022-09-06T17:44:05.551Z,25.90
2022-09-06T17:46:34.008Z,25.90
2022-09-06T17:49:01.791Z,25.80
2022-09-06T17:51:29.585Z,25.80
2022-09-06T17:53:57.401Z,25.70
2022-09-06T17:56:25.791Z,25.60
2022-09-06T17:58:56.251Z,25.60
2022-09-06T18:01:25.299Z,25.50
2022-09-06T18:03:53.793Z,25.40
2022-09-06T18:06:23.586Z,25.30
2022-09-06T18:08:53.192Z,25.20
2022-09-06T18:11:24.463Z,25.10
2022-09-06T18:13:58.379Z,25.10
2022-09-06T18:16:27.801Z,25.00
2022-09-06T18:18:58.088Z,24.90
2022-09-06T18:21:28.169Z,24.90
2022-09-06T18:23:56.335Z,24.80
2022-09-06T18:26:24.724Z,24.80
2022-09-06T18:28:53.495Z,24.70
2022-09-06T18:31:24.027Z,24.70
2022-09-06T18:33:52.301Z,24.70
2022-09-06T18:36:20.732Z,24.60
2022-09-06T18:38:48.708Z,24.50
2022-09-06T18:41:35.433Z,24.50
2022-09-06T18:44:04.701Z,24.50
2022-09-06T18:46:36.055Z,24.40
2022-09-06T18:49:04.091Z,24.30
2022-09-06T18:51:31.873Z,24.30
2022-09-06T18:54:00.223Z,24.20
2022-09-06T18:56:28.559Z,24.10
2022-09-06T18:58:58.112Z,24.00
2022-09-06T19:01:26.900Z,24.00
2022-09-06T19:03:57.293Z,24.00
2022-09-06T19:06:26.021Z,24.10
2022-09-06T19:08:54.007Z,24.10
2022-09-06T19:11:22.898Z,24.10
2022-09-06T19:13:53.292Z,24.10
2022-09-06T19:16:22.442Z,24.10
2022-09-06T19:18:50.967Z,24.10
2022-09-06T19:21:22.006Z,24.10
2022-09-06T19:23:56.715Z,24.10
2022-09-06T19:26:25.458Z,24.10
2022-09-06T19:28:55.616Z,24.10
2022-09-06T19:31:24.779Z,24.00
2022-09-06T19:33:52.952Z,24.00
2022-09-06T19:36:23.265Z,24.00
2022-09-06T19:39:05.064Z,24.00
2022-09-06T19:41:35.569Z,23.90
2022-09-06T19:44:05.559Z,23.90
2022-09-06T19:46:34.723Z,23.80
2022-09-06T19:49:02.569Z,23.80
2022-09-06T19:51:32.970Z,23.80
2022-09-06T19:54:00.798Z,23.80
2022-09-06T19:56:32.542Z,23.80
2022-09-06T19:59:02.314Z,23.80
2022-09-06T20:01:32.649Z,23.80
2022-09-06T20:04:02.560Z,23.80
2022-09-06T20:06:32.152Z,23.80
2022-09-06T20:09:01.250Z,23.80
2022-09-06T20:11:31.224Z,23.70
2022-09-06T20:14:00.265Z,23.70
2022-09-06T20:16:28.561Z,23.70
2022-09-06T20:18:56.751Z,23.70
2022-09-06T20:21:24.494Z,23.60
2022-09-06T20:23:55.109Z,23.60
2022-09-06T20:26:24.478Z,23.60
2022-09-06T20:28:55.777Z,23.60
2022-09-06T20:31:23.610Z,23.60
2022-09-06T20:33:51.367Z,23.60
2022-09-06T20:36:19.976Z,23.50
2022-09-06T20:38:49.385Z,23.50
2022-09-06T20:41:20.157Z,23.50
2022-09-06T20:43:52.263Z,23.50
2022-09-06T20:46:21.873Z,23.40
2022-09-06T20:48:50.061Z,23.40
2022-09-06T20:51:19.831Z,23.40
2022-09-06T20:53:49.269Z,23.40
2022-09-06T20:56:20.335Z,23.40
2022-09-06T20:58:52.722Z,23.40
2022-09-06T21:01:23.004Z,23.30
2022-09-06T21:03:52.990Z,23.30
2022-09-06T21:06:22.009Z,23.30
2022-09-06T21:08:50.960Z,23.30
2022-09-06T21:11:20.536Z,23.20
2022-09-06T21:13:51.031Z,23.20
2022-09-06T21:16:23.943Z,23.20
2022-09-06T21:18:52.766Z,23.20
2022-09-06T21:21:21.420Z,23.10
2022-09-06T21:23:49.871Z,23.10
2022-09-06T21:26:18.049Z,23.00
2022-09-06T21:28:48.163Z,22.90
2022-09-06T21:31:18.350Z,22.80
2022-09-06T21:33:47.921Z,22.70
2022-09-06T21:36:18.131Z,22.60
2022-09-06T21:38:47.409Z,22.50
2022-09-06T21:41:16.685Z,22.30
2022-09-06T21:43:45.098Z,22.10
2022-09-06T21:46:15.853Z,21.90
2022-09-06T21:48:45.781Z,21.80
2022-09-06T21:51:14.996Z,21.70
2022-09-06T21:53:43.798Z,21.50
2022-09-06T21:56:12.764Z,21.40
2022-09-06T21:58:41.051Z,21.30
2022-09-06T22:01:09.361Z,21.30
2022-09-06T22:03:40.145Z,21.30
2022-09-06T22:06:12.196Z,21.30
2022-09-06T22:08:42.017Z,21.20
2022-09-06T22:11:11.170Z,21.10
2022-09-06T22:13:39.446Z,21.10
2022-09-06T22:16:08.457Z,21.10
2022-09-06T22:18:38.004Z,21.10
2022-09-06T22:21:08.021Z,21.10
2022-09-06T22:23:36.598Z,21.00
2022-09-06T22:26:05.936Z,21.00
2022-09-06T22:28:34.107Z,20.90
2022-09-06T22:31:01.880Z,20.90
2022-09-06T22:33:29.879Z,20.90
2022-09-06T22:36:00.390Z,20.80
2022-09-06T22:38:28.543Z,20.70
2022-09-06T22:40:57.059Z,20.70
2022-09-06T22:43:26.496Z,20.60
2022-09-06T22:45:54.660Z,20.50
2022-09-06T22:48:22.849Z,20.40
2022-09-06T22:50:50.594Z,20.40
2022-09-06T22:53:20.806Z,20.30
2022-09-06T22:55:48.910Z,20.30
2022-09-06T22:58:17.012Z,20.30
2022-09-06T23:00:44.861Z,20.20
2022-09-06T23:03:12.869Z,20.20
2022-09-06T23:05:40.686Z,20.20
2022-09-06T23:08:08.435Z,20.10
2022-09-06T23:10:42.597Z,20.10
2022-09-06T23:13:10.843Z,20.10
2022-09-06T23:15:40.611Z,20.00
2022-09-06T23:18:08.798Z,20.00
2022-09-06T23:20:37.736Z,20.00
2022-09-06T23:23:06.203Z,20.00
2022-09-06T23:25:37.794Z,20.00
2022-09-06T23:28:07.290Z,19.90
2022-09-06T23:30:38.264Z,19.90
2022-09-06T23:33:05.985Z,19.90
2022-09-06T23:35:33.894Z,19.90
2022-09-06T23:38:01.618Z,19.90
2022-09-06T23:40:29.367Z,19.90
2022-09-06T23:42:57.171Z,19.90
2022-09-06T23:45:26.261Z,19.80
2022-09-06T23:47:54.027Z,19.80
2022-09-06T23:50:21.761Z,19.80
2022-09-06T23:52:49.588Z,19.70
2022-09-06T23:55:17.483Z,19.70
2022-09-06T23:57:45.216Z,19.60
